sensor_id;sensor_type;location;lat;lon;timestamp;pressure;altitude;pressure_sealevel;temperature;humidity
70559;BME280;58108;48.094;11.838;2022-11-21T00:01:30;94646.91;;;2.18;100.00
70559;BME280;58108;48.094;11.838;2022-11-21T00:03:56;94660.19;;;2.27;100.00
70559;BME280;58108;48.094;11.838;2022-11-21T00:06:21;94649.03;;;2.26;100.00
70559;BME280;58108;48.094;11.838;2022-11-21T00:08:48;94648.91;;;2.28;100.00
70559;BME280;58108;48.094;11.838;2022-11-21T00:11:14;94649.78;;;2.28;100.00
70559;BME280;58108;48.094;11.838;2022-11-21T00:13:40;94661.84;;;2.28;100.00
70559;BME280;58108;48.094;11.838;2022-11-21T00:16:08;94650.69;;;2.42;100.00
70559;BME280;58108;48.094;11.838;2022-11-21T00:18:34;94660.41;;;2.38;100.00
70559;BME280;58108;48.094;11.838;2022-11-21T00:21:06;94653.94;;;2.45;100.00
70559;BME280;58108;48.094;11.838;2022-11-21T00:23:32;94660.19;;;2.41;100.00
70559;BME280;58108;48.094;11.838;2022-11-21T00:25:57;94662.97;;;2.38;100.00
70559;BME280;58108;48.094;11.838;2022-11-21T00:28:22;94654.09;;;2.42;100.00
70559;BME280;58108;48.094;11.838;2022-11-21T00:30:47;94644.34;;;2.48;100.00
70559;BME280;58108;48.094;11.838;2022-11-21T00:33:13;94649.59;;;2.46;100.00
70559;BME280;58108;48.094;11.838;2022-11-21T00:35:38;94644.41;;;2.46;100.00
70559;BME280;58108;48.094;11.838;2022-11-21T00:38:03;94646.09;;;2.47;100.00
70559;BME280;58108;48.094;11.838;2022-11-21T00:40:28;94655.69;;;2.45;100.00
70559;BME280;58108;48.094;11.838;2022-11-21T00:42:54;94644.63;;;2.43;100.00
70559;BME280;58108;48.094;11.838;2022-11-21T00:45:19;94648.84;;;2.44;100.00
70559;BME280;58108;48.094;11.838;2022-11-21T00:47:44;94635.28;;;2.40;100.00
70559;BME280;58108;48.094;11.838;2022-11-21T00:50:09;94634.19;;;2.44;100.00
70559;BME280;58108;48.094;11.838;2022-11-21T00:52:35;94629.19;;;2.41;100.00
70559;BME280;58108;48.094;11.838;2022-11-21T00:55:00;94642.75;;;2.45;100.00
70559;BME280;58108;48.094;11.838;2022-11-21T00:57:25;94631.41;;;2.48;100.00
70559;BME280;58108;48.094;11.838;2022-11-21T00:59:51;94638.44;;;2.45;100.00
70559;BME280;58108;48.094;11.838;2022-11-21T01:02:16;94635.00;;;2.45;100.00
70559;BME280;58108;48.094;11.838;2022-11-21T01:04:41;94629.03;;;2.44;100.00
70559;BME280;58108;48.094;11.838;2022-11-21T01:07:07;94630.97;;;2.41;100.00
70559;BME280;58108;48.094;11.838;2022-11-21T01:09:32;94624.22;;;2.53;100.00
70559;BME280;58108;48.094;11.838;2022-11-21T01:11:57;94630.97;;;2.55;100.00
70559;BME280;58108;48.094;11.838;2022-11-21T01:14:23;94628.09;;;2.45;100.00
70559;BME280;58108;48.094;11.838;2022-11-21T01:16:48;94633.34;;;2.44;100.00
70559;BME280;58108;48.094;11.838;2022-11-21T01:19:14;94629.94;;;2.43;100.00
70559;BME280;58108;48.094;11.838;2022-11-21T01:21:39;94630.03;;;2.42;100.00
70559;BME280;58108;48.094;11.838;2022-11-21T01:24:04;94622.84;;;2.47;100.00
70559;BME280;58108;48.094;11.838;2022-11-21T01:26:30;94635.94;;;2.44;100.00
70559;BME280;58108;48.094;11.838;2022-11-21T01:28:57;94625.50;;;2.45;100.00
70559;BME280;58108;48.094;11.838;2022-11-21T01:31:25;94651.63;;;2.41;100.00
70559;BME280;58108;48.094;11.838;2022-11-21T01:33:51;94637.22;;;2.37;100.00
70559;BME280;58108;48.094;11.838;2022-11-21T01:36:29;94636.28;;;2.52;100.00
70559;BME280;58108;48.094;11.838;2022-11-21T01:38:56;94635.84;;;2.45;100.00
70559;BME280;58108;48.094;11.838;2022-11-21T01:41:28;94633.06;;;2.49;100.00
70559;BME280;58108;48.094;11.838;2022-11-21T01:43:56;94632.97;;;2.50;100.00
70559;BME280;58108;48.094;11.838;2022-11-21T01:46:22;94630.19;;;2.53;100.00
70559;BME280;58108;48.094;11.838;2022-11-21T01:51:33;94635.19;;;2.42;100.00
70559;BME280;58108;48.094;11.838;2022-11-21T01:54:07;94623.75;;;2.46;100.00
70559;BME280;58108;48.094;11.838;2022-11-21T01:56:46;94624.66;;;2.59;100.00
70559;BME280;58108;48.094;11.838;2022-11-21T01:59:20;94624.38;;;2.64;100.00
70559;BME280;58108;48.094;11.838;2022-11-21T02:01:50;94616.47;;;2.53;100.00
70559;BME280;58108;48.094;11.838;2022-11-21T02:04:18;94617.41;;;2.52;100.00
70559;BME280;58108;48.094;11.838;2022-11-21T02:06:44;94609.16;;;2.59;100.00
70559;BME280;58108;48.094;11.838;2022-11-21T02:09:09;94603.69;;;2.64;100.00
70559;BME280;58108;48.094;11.838;2022-11-21T02:11:41;94605.13;;;2.55;100.00
70559;BME280;58108;48.094;11.838;2022-11-21T02:14:10;94596.97;;;2.62;100.00
70559;BME280;58108;48.094;11.838;2022-11-21T02:16:35;94582.56;;;2.72;100.00
70559;BME280;58108;48.094;11.838;2022-11-21T02:19:01;94583.00;;;2.79;99.99
70559;BME280;58108;48.094;11.838;2022-11-21T02:21:45;94587.75;;;2.72;100.00
70559;BME280;58108;48.094;11.838;2022-11-21T02:25:03;94576.81;;;2.81;100.00
70559;BME280;58108;48.094;11.838;2022-11-21T02:27:29;94576.56;;;2.71;100.00
70559;BME280;58108;48.094;11.838;2022-11-21T02:29:54;94574.66;;;2.88;100.00
70559;BME280;58108;48.094;11.838;2022-11-21T02:32:22;94579.59;;;2.78;100.00
70559;BME280;58108;48.094;11.838;2022-11-21T02:34:47;94573.63;;;2.63;100.00
70559;BME280;58108;48.094;11.838;2022-11-21T02:37:13;94581.06;;;2.82;100.00
70559;BME280;58108;48.094;11.838;2022-11-21T02:39:38;94576.19;;;2.78;100.00
70559;BME280;58108;48.094;11.838;2022-11-21T02:42:11;94566.84;;;2.75;100.00
70559;BME280;58108;48.094;11.838;2022-11-21T02:47:09;94568.81;;;2.57;100.00
70559;BME280;58108;48.094;11.838;2022-11-21T02:49:52;94564.41;;;2.59;100.00
70559;BME280;58108;48.094;11.838;2022-11-21T02:52:21;94553.53;;;2.54;100.00
70559;BME280;58108;48.094;11.838;2022-11-21T02:54:46;94554.81;;;2.61;100.00
70559;BME280;58108;48.094;11.838;2022-11-21T02:57:11;94554.06;;;2.59;100.00
70559;BME280;58108;48.094;11.838;2022-11-21T02:59:37;94548.16;;;2.57;100.00
70559;BME280;58108;48.094;11.838;2022-11-21T03:02:02;94549.72;;;2.59;100.00
70559;BME280;58108;48.094;11.838;2022-11-21T03:04:27;94549.63;;;2.61;100.00
70559;BME280;58108;48.094;11.838;2022-11-21T03:06:53;94550.56;;;2.60;99.66
70559;BME280;58108;48.094;11.838;2022-11-21T03:09:18;94548.69;;;2.62;99.72
70559;BME280;58108;48.094;11.838;2022-11-21T03:11:43;94554.97;;;2.58;100.00
70559;BME280;58108;48.094;11.838;2022-11-21T03:14:09;94563.56;;;2.58;100.00
70559;BME280;58108;48.094;11.838;2022-11-21T03:16:34;94554.81;;;2.61;99.91
70559;BME280;58108;48.094;11.838;2022-11-21T03:18:59;94552.78;;;2.66;99.38
70559;BME280;58108;48.094;11.838;2022-11-21T03:21:25;94544.16;;;2.66;99.39
70559;BME280;58108;48.094;11.838;2022-11-21T03:23:50;94534.84;;;2.63;99.63
70559;BME280;58108;48.094;11.838;2022-11-21T03:26:15;94533.06;;;2.78;98.44
70559;BME280;58108;48.094;11.838;2022-11-21T03:28:41;94521.84;;;2.65;99.45
70559;BME280;58108;48.094;11.838;2022-11-21T03:31:07;94518.13;;;2.69;98.60
70559;BME280;58108;48.094;11.838;2022-11-21T03:33:32;94521.13;;;2.63;98.69
70559;BME280;58108;48.094;11.838;2022-11-21T03:35:57;94521.84;;;2.65;97.95
70559;BME280;58108;48.094;11.838;2022-11-21T03:38:22;94518.28;;;2.53;99.04
70559;BME280;58108;48.094;11.838;2022-11-21T03:40:48;94512.47;;;2.49;98.54
70559;BME280;58108;48.094;11.838;2022-11-21T03:43:13;94512.75;;;2.44;98.65
70559;BME280;58108;48.094;11.838;2022-11-21T03:45:38;94507.31;;;2.35;99.14
70559;BME280;58108;48.094;11.838;2022-11-21T03:48:04;94506.03;;;2.42;98.26
70559;BME280;58108;48.094;11.838;2022-11-21T03:50:29;94511.66;;;2.34;98.55
70559;BME280;58108;48.094;11.838;2022-11-21T03:52:54;94512.50;;;2.35;98.52
70559;BME280;58108;48.094;11.838;2022-11-21T03:55:19;94500.41;;;2.21;99.51
70559;BME280;58108;48.094;11.838;2022-11-21T03:57:45;94507.78;;;2.12;99.62
70559;BME280;58108;48.094;11.838;2022-11-21T04:00:11;94499.59;;;2.20;99.23
70559;BME280;58108;48.094;11.838;2022-11-21T04:02:37;94502.91;;;2.22;98.85
70559;BME280;58108;48.094;11.838;2022-11-21T04:05:02;94493.56;;;2.34;97.84
70559;BME280;58108;48.094;11.838;2022-11-21T04:07:28;94499.41;;;2.23;98.11
70559;BME280;58108;48.094;11.838;2022-11-21T04:09:54;94490.19;;;2.19;98.84
70559;BME280;58108;48.094;11.838;2022-11-21T04:12:19;94482.16;;;2.24;98.14
70559;BME280;58108;48.094;11.838;2022-11-21T04:14:44;94491.56;;;2.25;98.84
70559;BME280;58108;48.094;11.838;2022-11-21T04:17:09;94490.16;;;2.34;97.18
70559;BME280;58108;48.094;11.838;2022-11-21T04:19:35;94490.16;;;2.34;97.65
70559;BME280;58108;48.094;11.838;2022-11-21T04:22:00;94481.41;;;2.36;97.04
70559;BME280;58108;48.094;11.838;2022-11-21T04:24:25;94474.31;;;2.25;97.19
70559;BME280;58108;48.094;11.838;2022-11-21T04:26:53;94485.72;;;2.36;97.52
70559;BME280;58108;48.094;11.838;2022-11-21T04:29:18;94482.69;;;2.43;96.22
70559;BME280;58108;48.094;11.838;2022-11-21T04:31:43;94485.06;;;2.46;95.79
70559;BME280;58108;48.094;11.838;2022-11-21T04:34:08;94485.31;;;2.56;96.34
70559;BME280;58108;48.094;11.838;2022-11-21T04:36:34;94480.22;;;2.55;95.67
70559;BME280;58108;48.094;11.838;2022-11-21T04:38:59;94484.03;;;2.49;95.79
70559;BME280;58108;48.094;11.838;2022-11-21T04:41:24;94477.94;;;2.50;96.19
70559;BME280;58108;48.094;11.838;2022-11-21T04:43:50;94472.41;;;2.56;94.97
70559;BME280;58108;48.094;11.838;2022-11-21T04:46:16;94466.94;;;2.61;94.39
70559;BME280;58108;48.094;11.838;2022-11-21T04:48:41;94466.25;;;2.72;94.15
70559;BME280;58108;48.094;11.838;2022-11-21T04:51:06;94464.19;;;2.77;93.82
70559;BME280;58108;48.094;11.838;2022-11-21T04:53:31;94476.28;;;2.77;94.13
70559;BME280;58108;48.094;11.838;2022-11-21T04:55:57;94473.66;;;2.91;92.34
70559;BME280;58108;48.094;11.838;2022-11-21T04:58:22;94457.81;;;2.96;91.22
70559;BME280;58108;48.094;11.838;2022-11-21T05:00:47;94469.44;;;3.03;91.64
70559;BME280;58108;48.094;11.838;2022-11-21T05:03:13;94469.22;;;3.06;91.29
70559;BME280;58108;48.094;11.838;2022-11-21T05:05:38;94473.75;;;3.03;91.92
70559;BME280;58108;48.094;11.838;2022-11-21T05:08:03;94464.66;;;2.97;93.14
70559;BME280;58108;48.094;11.838;2022-11-21T05:10:29;94476.22;;;2.91;94.63
70559;BME280;58108;48.094;11.838;2022-11-21T05:12:58;94462.59;;;2.89;94.53
70559;BME280;58108;48.094;11.838;2022-11-21T05:15:42;94465.34;;;2.86;95.79
70559;BME280;58108;48.094;11.838;2022-11-21T05:18:07;94466.06;;;2.88;95.79
70559;BME280;58108;48.094;11.838;2022-11-21T05:20:33;94472.81;;;2.91;96.14
70559;BME280;58108;48.094;11.838;2022-11-21T05:22:58;94462.34;;;2.79;96.06
70559;BME280;58108;48.094;11.838;2022-11-21T05:25:23;94453.56;;;2.82;96.74
70559;BME280;58108;48.094;11.838;2022-11-21T05:27:48;94448.06;;;2.73;97.09
70559;BME280;58108;48.094;11.838;2022-11-21T05:30:14;94442.53;;;2.65;97.86
70559;BME280;58108;48.094;11.838;2022-11-21T05:32:40;94436.56;;;2.65;99.03
70559;BME280;58108;48.094;11.838;2022-11-21T05:35:05;94432.41;;;2.62;99.28
70559;BME280;58108;48.094;11.838;2022-11-21T05:37:32;94435.06;;;2.60;99.29
70559;BME280;58108;48.094;11.838;2022-11-21T05:39:57;94438.03;;;2.54;99.63
70559;BME280;58108;48.094;11.838;2022-11-21T05:42:22;94432.75;;;2.43;100.00
70559;BME280;58108;48.094;11.838;2022-11-21T05:45:08;94433.63;;;2.56;100.00
70559;BME280;58108;48.094;11.838;2022-11-21T05:47:33;94439.09;;;2.52;100.00
70559;BME280;58108;48.094;11.838;2022-11-21T05:49:59;94438.59;;;2.59;100.00
70559;BME280;58108;48.094;11.838;2022-11-21T05:52:24;94441.72;;;2.65;100.00
70559;BME280;58108;48.094;11.838;2022-11-21T05:54:49;94441.56;;;2.53;100.00
70559;BME280;58108;48.094;11.838;2022-11-21T05:57:14;94442.16;;;2.44;100.00
70559;BME280;58108;48.094;11.838;2022-11-21T05:59:40;94436.56;;;2.37;100.00
70559;BME280;58108;48.094;11.838;2022-11-21T06:02:05;94438.50;;;2.34;100.00
70559;BME280;58108;48.094;11.838;2022-11-21T06:04:49;94436.31;;;2.55;100.00
70559;BME280;58108;48.094;11.838;2022-11-21T06:07:14;94440.06;;;2.36;100.00
70559;BME280;58108;48.094;11.838;2022-11-21T06:09:39;94442.81;;;2.33;100.00
70559;BME280;58108;48.094;11.838;2022-11-21T06:12:04;94443.22;;;2.27;100.00
70559;BME280;58108;48.094;11.838;2022-11-21T06:14:30;94444.97;;;2.26;100.00
70559;BME280;58108;48.094;11.838;2022-11-21T06:16:55;94442.69;;;2.22;100.00
70559;BME280;58108;48.094;11.838;2022-11-21T06:19:20;94449.47;;;2.37;100.00
70559;BME280;58108;48.094;11.838;2022-11-21T06:21:45;94450.66;;;2.31;100.00
70559;BME280;58108;48.094;11.838;2022-11-21T06:24:11;94459.94;;;2.49;100.00
70559;BME280;58108;48.094;11.838;2022-11-21T06:26:36;94449.19;;;2.42;100.00
70559;BME280;58108;48.094;11.838;2022-11-21T06:29:02;94456.75;;;2.30;100.00
70559;BME280;58108;48.094;11.838;2022-11-21T06:31:27;94462.81;;;2.44;100.00
70559;BME280;58108;48.094;11.838;2022-11-21T06:33:54;94459.13;;;2.48;100.00
70559;BME280;58108;48.094;11.838;2022-11-21T06:36:20;94467.06;;;2.45;100.00
70559;BME280;58108;48.094;11.838;2022-11-21T06:38:46;94459.34;;;2.30;100.00
70559;BME280;58108;48.094;11.838;2022-11-21T06:43:37;94464.53;;;2.58;100.00
70559;BME280;58108;48.094;11.838;2022-11-21T06:46:02;94469.84;;;2.69;100.00
70559;BME280;58108;48.094;11.838;2022-11-21T06:48:29;94467.34;;;2.40;100.00
70559;BME280;58108;48.094;11.838;2022-11-21T06:50:54;94469.75;;;2.43;100.00
70559;BME280;58108;48.094;11.838;2022-11-21T06:53:19;94469.84;;;2.69;100.00
70559;BME280;58108;48.094;11.838;2022-11-21T06:55:45;94479.09;;;2.73;100.00
70559;BME280;58108;48.094;11.838;2022-11-21T06:58:10;94476.72;;;2.83;100.00
70559;BME280;58108;48.094;11.838;2022-11-21T07:00:35;94484.16;;;2.88;100.00
70559;BME280;58108;48.094;11.838;2022-11-21T07:03:02;94486.72;;;2.75;100.00
70559;BME280;58108;48.094;11.838;2022-11-21T07:05:28;94492.97;;;2.85;100.00
70559;BME280;58108;48.094;11.838;2022-11-21T07:08:01;94481.78;;;2.85;100.00
70559;BME280;58108;48.094;11.838;2022-11-21T07:10:27;94496.63;;;2.96;100.00
70559;BME280;58108;48.094;11.838;2022-11-21T07:12:57;94494.03;;;2.96;100.00
70559;BME280;58108;48.094;11.838;2022-11-21T07:15:41;94493.53;;;3.04;99.54
70559;BME280;58108;48.094;11.838;2022-11-21T07:18:06;94498.81;;;3.02;100.00
70559;BME280;58108;48.094;11.838;2022-11-21T07:20:32;94487.44;;;3.05;98.95
70559;BME280;58108;48.094;11.838;2022-11-21T07:22:57;94495.91;;;3.07;99.45
70559;BME280;58108;48.094;11.838;2022-11-21T07:25:22;94491.06;;;3.02;98.06
70559;BME280;58108;48.094;11.838;2022-11-21T07:27:47;94500.38;;;3.05;99.09
70559;BME280;58108;48.094;11.838;2022-11-21T07:30:13;94491.75;;;2.91;99.51
70559;BME280;58108;48.094;11.838;2022-11-21T07:32:38;94501.16;;;2.92;99.14
70559;BME280;58108;48.094;11.838;2022-11-21T07:35:04;94500.53;;;2.89;99.01
70559;BME280;58108;48.094;11.838;2022-11-21T07:37:29;94503.88;;;2.76;99.78
70559;BME280;58108;48.094;11.838;2022-11-21T07:39:55;94496.66;;;2.81;98.72
70559;BME280;58108;48.094;11.838;2022-11-21T07:42:20;94509.22;;;2.87;98.59
70559;BME280;58108;48.094;11.838;2022-11-21T07:44:45;94501.78;;;2.96;97.52
70559;BME280;58108;48.094;11.838;2022-11-21T07:47:11;94508.53;;;2.98;97.63
70559;BME280;58108;48.094;11.838;2022-11-21T07:49:36;94514.75;;;2.81;97.79
70559;BME280;58108;48.094;11.838;2022-11-21T07:52:01;94516.81;;;2.76;98.41
70559;BME280;58108;48.094;11.838;2022-11-21T07:54:27;94528.47;;;2.69;98.13
70559;BME280;58108;48.094;11.838;2022-11-21T07:56:52;94521.75;;;2.66;98.66
70559;BME280;58108;48.094;11.838;2022-11-21T07:59:17;94523.50;;;2.66;98.78
70559;BME280;58108;48.094;11.838;2022-11-21T08:01:43;94535.06;;;2.87;98.14
70559;BME280;58108;48.094;11.838;2022-11-21T08:04:08;94540.41;;;2.84;97.03
70559;BME280;58108;48.094;11.838;2022-11-21T08:06:34;94540.03;;;2.91;97.09
70559;BME280;58108;48.094;11.838;2022-11-21T08:08:59;94531.41;;;3.05;95.55
70559;BME280;58108;48.094;11.838;2022-11-21T08:11:24;94536.63;;;2.90;96.19
70559;BME280;58108;48.094;11.838;2022-11-21T08:13:50;94523.78;;;2.89;95.32
70559;BME280;58108;48.094;11.838;2022-11-21T08:16:15;94532.09;;;2.94;95.97
70559;BME280;58108;48.094;11.838;2022-11-21T08:18:40;94540.19;;;3.02;95.66
70559;BME280;58108;48.094;11.838;2022-11-21T08:21:05;94540.63;;;3.09;94.48
70559;BME280;58108;48.094;11.838;2022-11-21T08:23:31;94546.91;;;3.32;94.44
70559;BME280;58108;48.094;11.838;2022-11-21T08:25:57;94541.75;;;3.45;94.30
70559;BME280;58108;48.094;11.838;2022-11-21T08:28:25;94550.81;;;3.25;94.40
70559;BME280;58108;48.094;11.838;2022-11-21T08:30:50;94545.00;;;3.21;93.91
70559;BME280;58108;48.094;11.838;2022-11-21T08:33:15;94537.53;;;3.17;94.33
70559;BME280;58108;48.094;11.838;2022-11-21T08:35:40;94532.69;;;3.12;94.45
70559;BME280;58108;48.094;11.838;2022-11-21T08:38:06;94539.63;;;3.24;93.80
70559;BME280;58108;48.094;11.838;2022-11-21T08:40:33;94538.50;;;3.28;94.29
70559;BME280;58108;48.094;11.838;2022-11-21T08:43:00;94533.41;;;3.27;93.76
70559;BME280;58108;48.094;11.838;2022-11-21T08:45:26;94534.06;;;3.31;93.50
70559;BME280;58108;48.094;11.838;2022-11-21T08:47:52;94536.22;;;3.24;94.14
70559;BME280;58108;48.094;11.838;2022-11-21T08:50:18;94540.38;;;3.26;93.62
70559;BME280;58108;48.094;11.838;2022-11-21T08:52:44;94537.16;;;3.23;93.90
70559;BME280;58108;48.094;11.838;2022-11-21T08:55:09;94542.66;;;3.31;93.82
70559;BME280;58108;48.094;11.838;2022-11-21T08:57:38;94539.56;;;3.39;93.33
70559;BME280;58108;48.094;11.838;2022-11-21T09:00:05;94545.38;;;3.55;92.67
70559;BME280;58108;48.094;11.838;2022-11-21T09:02:31;94538.44;;;3.56;92.62
70559;BME280;58108;48.094;11.838;2022-11-21T09:04:56;94532.16;;;3.73;92.12
70559;BME280;58108;48.094;11.838;2022-11-21T09:07:22;94537.41;;;3.59;91.73
70559;BME280;58108;48.094;11.838;2022-11-21T09:09:47;94541.03;;;3.69;90.90
70559;BME280;58108;48.094;11.838;2022-11-21T09:12:13;94543.63;;;3.56;89.80
70559;BME280;58108;48.094;11.838;2022-11-21T09:14:38;94532.22;;;3.46;91.32
70559;BME280;58108;48.094;11.838;2022-11-21T09:17:22;94522.81;;;3.58;90.71
70559;BME280;58108;48.094;11.838;2022-11-21T09:20:06;94533.19;;;3.58;89.58
70559;BME280;58108;48.094;11.838;2022-11-21T09:22:31;94532.56;;;3.67;88.47
70559;BME280;58108;48.094;11.838;2022-11-21T09:24:57;94529.56;;;3.86;87.70
70559;BME280;58108;48.094;11.838;2022-11-21T09:27:22;94538.47;;;4.08;86.24
70559;BME280;58108;48.094;11.838;2022-11-21T09:29:47;94543.94;;;4.29;86.02
70559;BME280;58108;48.094;11.838;2022-11-21T09:32:12;94538.31;;;4.48;85.19
70559;BME280;58108;48.094;11.838;2022-11-21T09:34:38;94538.41;;;4.60;85.09
70559;BME280;58108;48.094;11.838;2022-11-21T09:37:03;94539.03;;;4.50;84.39
70559;BME280;58108;48.094;11.838;2022-11-21T09:39:28;94546.81;;;4.50;83.83
70559;BME280;58108;48.094;11.838;2022-11-21T09:42:02;94536.31;;;4.52;84.69
70559;BME280;58108;48.094;11.838;2022-11-21T09:47:26;94534.59;;;4.40;84.37
70559;BME280;58108;48.094;11.838;2022-11-21T09:49:59;94540.50;;;4.42;83.48
70559;BME280;58108;48.094;11.838;2022-11-21T09:52:51;94530.53;;;4.48;84.53
70559;BME280;58108;48.094;11.838;2022-11-21T09:55:35;94527.53;;;4.79;83.32
70559;BME280;58108;48.094;11.838;2022-11-21T09:58:08;94527.91;;;4.86;82.13
70559;BME280;58108;48.094;11.838;2022-11-21T10:00:36;94523.34;;;4.65;82.43
70559;BME280;58108;48.094;11.838;2022-11-21T10:03:01;94511.28;;;4.64;83.20
70559;BME280;58108;48.094;11.838;2022-11-21T10:05:35;94517.69;;;4.47;82.14
70559;BME280;58108;48.094;11.838;2022-11-21T10:08:12;94518.38;;;4.62;82.83
70559;BME280;58108;48.094;11.838;2022-11-21T10:10:54;94511.75;;;4.58;83.10
70559;BME280;58108;48.094;11.838;2022-11-21T10:13:35;94507.72;;;4.54;82.98
70559;BME280;58108;48.094;11.838;2022-11-21T10:21:47;94498.25;;;4.90;83.45
70559;BME280;58108;48.094;11.838;2022-11-21T10:27:01;94505.31;;;5.48;81.59
70559;BME280;58108;48.094;11.838;2022-11-21T10:29:49;94500.41;;;5.32;80.96
70559;BME280;58108;48.094;11.838;2022-11-21T10:32:24;94502.31;;;5.30;80.42
70559;BME280;58108;48.094;11.838;2022-11-21T10:34:54;94497.91;;;5.19;79.48
70559;BME280;58108;48.094;11.838;2022-11-21T10:37:30;94491.66;;;5.22;79.28
70559;BME280;58108;48.094;11.838;2022-11-21T10:40:08;94492.53;;;5.09;78.47
70559;BME280;58108;48.094;11.838;2022-11-21T10:42:50;94489.53;;;5.27;78.65
70559;BME280;58108;48.094;11.838;2022-11-21T10:45:17;94471.09;;;5.54;77.77
70559;BME280;58108;48.094;11.838;2022-11-21T10:47:51;94469.22;;;5.56;76.13
70559;BME280;58108;48.094;11.838;2022-11-21T10:53:07;94464.03;;;6.59;74.82
70559;BME280;58108;48.094;11.838;2022-11-21T10:56:04;94459.78;;;5.55;75.91
70559;BME280;58108;48.094;11.838;2022-11-21T10:58:35;94455.66;;;5.75;76.08
70559;BME280;58108;48.094;11.838;2022-11-21T11:01:01;94450.09;;;5.57;76.59
70559;BME280;58108;48.094;11.838;2022-11-21T11:03:28;94467.31;;;5.58;77.90
70559;BME280;58108;48.094;11.838;2022-11-21T11:05:55;94457.63;;;5.49;79.65
70559;BME280;58108;48.094;11.838;2022-11-21T11:08:23;94448.84;;;5.39;81.39
70559;BME280;58108;48.094;11.838;2022-11-21T11:11:06;94452.19;;;5.52;81.53
70559;BME280;58108;48.094;11.838;2022-11-21T11:13:32;94446.16;;;5.29;81.69
70559;BME280;58108;48.094;11.838;2022-11-21T11:16:09;94445.06;;;5.20;81.15
70559;BME280;58108;48.094;11.838;2022-11-21T11:19:04;94429.97;;;5.25;80.77
70559;BME280;58108;48.094;11.838;2022-11-21T11:26:56;94410.75;;;5.28;81.34
70559;BME280;58108;48.094;11.838;2022-11-21T11:29:29;94408.75;;;5.31;79.53
70559;BME280;58108;48.094;11.838;2022-11-21T11:32:21;94410.56;;;4.95;79.17
70559;BME280;58108;48.094;11.838;2022-11-21T11:35:17;94411.66;;;5.15;81.15
70559;BME280;58108;48.094;11.838;2022-11-21T11:37:58;94407.00;;;4.96;81.52
70559;BME280;58108;48.094;11.838;2022-11-21T11:40:40;94392.56;;;5.16;81.55
70559;BME280;58108;48.094;11.838;2022-11-21T11:46:27;94397.69;;;5.05;81.92
70559;BME280;58108;48.094;11.838;2022-11-21T11:49:34;94398.84;;;5.25;82.53
70559;BME280;58108;48.094;11.838;2022-11-21T11:52:24;94393.59;;;5.14;80.31
70559;BME280;58108;48.094;11.838;2022-11-21T11:54:59;94387.13;;;5.19;80.25
70559;BME280;58108;48.094;11.838;2022-11-21T11:57:26;94376.63;;;5.21;81.10
70559;BME280;58108;48.094;11.838;2022-11-21T12:02:48;94379.41;;;4.95;86.54
70559;BME280;58108;48.094;11.838;2022-11-21T12:05:26;94384.06;;;5.14;85.50
70559;BME280;58108;48.094;11.838;2022-11-21T12:08:15;94378.13;;;5.12;83.97
70559;BME280;58108;48.094;11.838;2022-11-21T12:10:51;94375.91;;;5.07;83.04
70559;BME280;58108;48.094;11.838;2022-11-21T12:13:36;94387.06;;;4.85;83.96
70559;BME280;58108;48.094;11.838;2022-11-21T12:16:05;94393.38;;;4.70;84.94
70559;BME280;58108;48.094;11.838;2022-11-21T12:21:18;94386.53;;;4.69;86.51
70559;BME280;58108;48.094;11.838;2022-11-21T12:23:45;94380.41;;;4.70;87.16
70559;BME280;58108;48.094;11.838;2022-11-21T12:26:29;94372.34;;;5.09;86.83
70559;BME280;58108;48.094;11.838;2022-11-21T12:32:06;94345.09;;;7.97;74.99
70559;BME280;58108;48.094;11.838;2022-11-21T12:35:35;94338.22;;;10.10;70.34
70559;BME280;58108;48.094;11.838;2022-11-21T12:40:30;94331.13;;;11.56;62.89
70559;BME280;58108;48.094;11.838;2022-11-21T12:45:56;94322.03;;;11.42;60.38
70559;BME280;58108;48.094;11.838;2022-11-21T12:48:38;94312.56;;;9.95;59.99
70559;BME280;58108;48.094;11.838;2022-11-21T12:57:14;94294.69;;;12.22;56.06
70559;BME280;58108;48.094;11.838;2022-11-21T12:59:45;94291.94;;;10.20;59.47
70559;BME280;58108;48.094;11.838;2022-11-21T13:02:22;94294.81;;;12.04;54.96
70559;BME280;58108;48.094;11.838;2022-11-21T13:04:52;94283.94;;;13.00;52.84
70559;BME280;58108;48.094;11.838;2022-11-21T13:07:20;94285.94;;;11.62;54.03
70559;BME280;58108;48.094;11.838;2022-11-21T13:09:48;94280.31;;;12.51;52.04
70559;BME280;58108;48.094;11.838;2022-11-21T13:12:31;94275.56;;;13.78;48.06
70559;BME280;58108;48.094;11.838;2022-11-21T13:15:01;94281.28;;;12.34;50.05
70559;BME280;58108;48.094;11.838;2022-11-21T13:20:11;94257.19;;;14.01;47.32
70559;BME280;58108;48.094;11.838;2022-11-21T13:25:12;94257.09;;;15.71;47.51
70559;BME280;58108;48.094;11.838;2022-11-21T13:30:52;94246.16;;;16.42;45.48
70559;BME280;58108;48.094;11.838;2022-11-21T13:49:38;94230.84;;;9.93;55.86
70559;BME280;58108;48.094;11.838;2022-11-21T13:55:34;94233.06;;;9.04;60.85
70559;BME280;58108;48.094;11.838;2022-11-21T14:00:57;94227.13;;;8.44;62.91
70559;BME280;58108;48.094;11.838;2022-11-21T14:04:00;94218.03;;;8.68;60.98
70559;BME280;58108;48.094;11.838;2022-11-21T14:11:48;94198.03;;;8.97;60.38
70559;BME280;58108;48.094;11.838;2022-11-21T14:14:25;94191.72;;;8.52;60.36
70559;BME280;58108;48.094;11.838;2022-11-21T14:17:01;94202.00;;;8.24;61.92
70559;BME280;58108;48.094;11.838;2022-11-21T14:19:29;94188.81;;;7.56;64.32
70559;BME280;58108;48.094;11.838;2022-11-21T14:21:57;94190.66;;;7.34;63.13
70559;BME280;58108;48.094;11.838;2022-11-21T14:24:23;94189.91;;;7.13;64.55
70559;BME280;58108;48.094;11.838;2022-11-21T14:26:51;94187.91;;;7.26;65.54
70559;BME280;58108;48.094;11.838;2022-11-21T14:29:36;94183.81;;;6.61;69.25
70559;BME280;58108;48.094;11.838;2022-11-21T14:32:02;94184.81;;;6.70;70.08